Time;durP1;ratioP1;P1;durP2;ratioP2;P2;SDS_P1;SDS_P2;PMS_P1;PMS_P2;Temp;Humidity;BMP_temperature;BMP_pressure;BME280_temperature;BME280_humidity;BME280_pressure;Samples;Min_cycle;Max_cycle;Signal;HPM_P1;HPM_P2
2023/12/20 00:06:42;;;;;;;0.00;0.00;;;;;;;6.68;86.07;100513.28;15843010;28;20442;-49
2023/12/20 00:14:23;;;;;;;0.00;0.00;;;;;;;6.33;87.44;100511.25;15860663;28;20405;-52
2023/12/20 00:21:59;;;;;;;0.08;0.08;;;;;;;6.59;86.96;100496.56;15858014;28;20054;-51
2023/12/20 00:29:35;;;;;;;0.13;0.13;;;;;;;6.42;87.31;100495.97;15854741;28;20275;-51
2023/12/20 00:37:09;;;;;;;0.00;0.00;;;;;;;6.58;87.23;100495.75;15858844;28;20054;-52
2023/12/20 00:44:51;;;;;;;0.30;0.30;;;;;;;6.22;87.02;100450.47;15858550;28;20040;-49
2023/12/20 00:52:25;;;;;;;0.03;0.03;;;;;;;6.60;87.24;100485.72;15858051;28;20064;-50
2023/12/20 01:00:01;;;;;;;0.10;0.10;;;;;;;6.60;88.20;100485.72;15835391;28;20047;-51
2023/12/20 01:07:36;;;;;;;0.00;0.00;;;;;;;6.56;87.32;100487.09;15847568;28;20283;-51
2023/12/20 01:15:12;;;;;;;0.00;0.00;;;;;;;6.49;87.59;100478.22;15840221;28;20381;-50
2023/12/20 01:22:45;;;;;;;0.00;0.00;;;;;;;6.88;85.95;100483.09;15857545;28;20404;-48
2023/12/20 01:30:21;;;;;;;0.10;0.10;;;;;;;6.59;87.72;100492.06;15857719;28;20058;-49
2023/12/20 01:37:56;;;;;;;0.60;0.38;;;;;;;6.50;88.55;100489.72;15855424;28;20123;-50
2023/12/20 01:45:32;;;;;;;0.00;0.00;;;;;;;6.53;88.38;100479.50;15853224;28;20050;-51
2023/12/20 01:53:09;;;;;;;0.65;0.32;;;;;;;6.79;87.13;100484.25;15838446;28;20608;-50
2023/12/20 02:00:45;;;;;;;0.38;0.38;;;;;;;6.36;88.70;100465.59;15856371;28;20028;-51
2023/12/20 02:08:19;;;;;;;0.20;0.20;;;;;;;6.62;88.99;100462.38;15857793;28;20039;-51
2023/12/20 02:15:55;;;;;;;0.00;0.00;;;;;;;6.34;89.74;100464.97;15864495;28;20039;-51
2023/12/20 02:23:29;;;;;;;0.80;0.47;;;;;;;6.06;90.89;100474.66;15846967;28;20047;-50
2023/12/20 02:31:05;;;;;;;0.08;0.08;;;;;;;6.18;90.85;100467.84;15865569;28;20036;-51
2023/12/20 02:38:40;;;;;;;0.65;0.20;;;;;;;6.09;90.12;100456.47;15826706;28;20104;-51
2023/12/20 02:46:17;;;;;;;1.02;0.70;;;;;;;6.41;89.27;100453.53;15865982;27;20091;-49
2023/12/20 02:53:52;;;;;;;0.20;0.20;;;;;;;6.60;88.00;100464.38;15861874;28;20052;-51
2023/12/20 03:01:27;;;;;;;0.00;0.00;;;;;;;6.55;88.60;100457.97;15862728;28;20066;-49
2023/12/20 03:09:04;;;;;;;0.30;0.30;;;;;;;6.62;87.85;100473.03;15862725;28;20043;-50
2023/12/20 03:16:37;;;;;;;0.00;0.00;;;;;;;6.88;86.66;100463.59;15855557;28;20040;-51
2023/12/20 03:24:12;;;;;;;0.20;0.20;;;;;;;6.54;88.03;100472.31;15858889;28;20050;-50
2023/12/20 03:31:47;;;;;;;0.95;0.95;;;;;;;6.74;87.33;100464.50;15843725;28;20628;-52
2023/12/20 03:39:21;;;;;;;;;;;;;;;6.85;87.24;100474.63;15841669;28;20167;-52
2023/12/20 03:46:55;;;;;;;0.10;0.10;;;;;;;6.79;86.99;100478.09;15855852;27;19919;-51
2023/12/20 03:54:45;;;;;;;0.20;0.20;;;;;;;6.57;87.55;100461.25;15846483;28;20028;-51
2023/12/20 04:02:19;;;;;;;0.00;0.00;;;;;;;6.59;87.74;100456.56;15860611;28;20457;-51
2023/12/20 04:09:54;;;;;;;0.25;0.22;;;;;;;6.74;85.69;100459.16;15860882;28;20422;-56
2023/12/20 04:17:29;;;;;;;0.00;0.00;;;;;;;6.44;85.95;100447.81;15860334;28;20086;-50
2023/12/20 04:25:08;;;;;;;0.52;0.20;;;;;;;6.29;86.99;100443.34;15856166;28;20105;-51
2023/12/20 04:32:41;;;;;;;0.00;0.00;;;;;;;5.96;87.92;100437.66;15843004;28;20384;-50
2023/12/20 04:40:16;;;;;;;0.85;0.73;;;;;;;6.13;85.83;100435.59;15858683;28;20442;-49
2023/12/20 04:47:56;;;;;;;0.10;0.10;;;;;;;5.94;86.21;100431.72;15858315;27;20089;-51
2023/12/20 04:55:31;;;;;;;0.00;0.00;;;;;;;5.81;86.13;100440.34;15853706;28;20043;-51
2023/12/20 05:03:09;;;;;;;0.00;0.00;;;;;;;5.22;86.73;100435.06;15840506;28;20472;-55
2023/12/20 05:10:45;;;;;;;0.00;0.00;;;;;;;5.51;86.03;100454.72;15854642;28;20059;-50
2023/12/20 05:18:21;;;;;;;0.00;0.00;;;;;;;5.39;86.05;100438.34;15853661;28;20511;-52
2023/12/20 05:25:56;;;;;;;0.00;0.00;;;;;;;5.15;86.15;100442.09;15856850;28;20078;-52
2023/12/20 05:33:39;;;;;;;3.30;2.47;;;;;;;5.02;85.61;100461.34;15854243;28;20086;-53
2023/12/20 05:41:18;;;;;;;0.00;0.00;;;;;;;4.81;86.30;100447.94;15859131;28;20044;-51
2023/12/20 05:48:52;;;;;;;0.60;0.60;;;;;;;4.92;85.03;100444.00;15828624;22;20083;-49
2023/12/20 05:56:27;;;;;;;0.00;0.00;;;;;;;5.18;83.82;100440.94;15739737;28;21517;-47
2023/12/20 06:04:03;;;;;;;0.00;0.00;;;;;;;5.02;83.43;100439.25;15669235;28;20513;-48
2023/12/20 06:11:41;;;;;;;2.28;1.17;;;;;;;5.17;82.91;100423.28;15675133;28;20560;-47
2023/12/20 06:19:15;;;;;;;0.32;0.32;;;;;;;5.22;83.16;100429.75;15677722;28;20137;-49
2023/12/20 06:26:53;;;;;;;0.00;0.00;;;;;;;4.90;83.43;100444.19;15605685;28;20037;-46
2023/12/20 06:34:27;;;;;;;0.00;0.00;;;;;;;4.70;84.79;100443.84;15653635;28;20037;-47
2023/12/20 06:42:06;;;;;;;0.00;0.00;;;;;;;5.07;84.13;100445.66;15651513;28;20212;-47
2023/12/20 06:49:40;;;;;;;0.00;0.00;;;;;;;5.04;85.21;100443.41;15656082;28;20041;-48
2023/12/20 06:57:16;;;;;;;0.00;0.00;;;;;;;4.68;86.54;100432.59;15635020;28;20110;-48
2023/12/20 07:04:49;;;;;;;0.00;0.00;;;;;;;4.47;87.06;100438.56;15652622;28;20033;-46
2023/12/20 07:12:25;;;;;;;0.00;0.00;;;;;;;4.81;86.28;100437.28;15676734;28;20052;-48
2023/12/20 07:19:58;;;;;;;0.00;0.00;;;;;;;4.84;85.64;100436.91;15654543;28;20199;-47
2023/12/20 07:27:33;;;;;;;0.00;0.00;;;;;;;4.87;85.22;100439.22;15671697;28;20044;-50
2023/12/20 07:35:07;;;;;;;0.00;0.00;;;;;;;4.94;84.35;100436.66;15675370;28;20053;-46
2023/12/20 07:42:41;;;;;;;0.00;0.00;;;;;;;5.10;83.32;100423.22;15662141;28;20091;-48
2023/12/20 07:50:15;;;;;;;0.00;0.00;;;;;;;5.10;82.82;100421.38;15670184;28;20045;-48
2023/12/20 07:57:50;;;;;;;0.10;0.10;;;;;;;5.20;82.61;100422.94;15674398;28;20048;-46
2023/12/20 08:05:24;;;;;;;0.00;0.00;;;;;;;5.10;82.59;100421.38;15611892;28;20157;-48
2023/12/20 08:12:59;;;;;;;0.00;0.00;;;;;;;5.29;82.36;100416.53;15621711;28;20044;-46
2023/12/20 08:20:36;;;;;;;0.00;0.00;;;;;;;5.01;83.24;100430.44;15646611;28;20044;-46
2023/12/20 08:28:11;;;;;;;0.55;0.50;;;;;;;5.05;83.01;100421.09;15641927;28;20045;-50
2023/12/20 08:35:45;;;;;;;0.00;0.00;;;;;;;5.10;83.33;100413.41;15670660;28;20045;-47
2023/12/20 08:43:20;;;;;;;0.10;0.10;;;;;;;5.52;81.79;100411.09;15665735;28;20033;-48
2023/12/20 08:50:53;;;;;;;0.00;0.00;;;;;;;5.35;83.57;100405.13;15650704;28;20029;-48
2023/12/20 08:58:28;;;;;;;;;;;;;;;5.32;82.77;100387.72;15657188;28;20049;-47
2023/12/20 09:06:02;;;;;;;0.00;0.00;;;;;;;5.52;82.22;100395.94;15661746;28;19928;-45
2023/12/20 09:13:37;;;;;;;0.00;0.00;;;;;;;5.45;81.98;100399.53;15643833;28;20040;-48
2023/12/20 09:21:12;;;;;;;0.00;0.00;;;;;;;5.52;81.38;100385.28;15651839;28;20037;-51
2023/12/20 09:28:49;;;;;;;0.00;0.00;;;;;;;5.82;80.47;100367.41;15651189;28;20036;-49
2023/12/20 09:36:22;;;;;;;0.00;0.00;;;;;;;5.54;80.72;100363.81;15668429;28;20069;-49
2023/12/20 09:44:01;;;;;;;0.15;0.15;;;;;;;5.77;79.61;100374.31;15669040;28;20482;-52
2023/12/20 09:51:36;;;;;;;0.43;0.43;;;;;;;5.94;79.25;100366.97;15652142;28;20149;-52
2023/12/20 09:59:13;;;;;;;0.68;0.68;;;;;;;5.77;79.88;100364.47;15651418;28;20428;-49
2023/12/20 10:06:47;;;;;;;0.00;0.00;;;;;;;5.81;78.36;100341.78;15643946;28;20029;-52
2023/12/20 10:14:22;;;;;;;0.00;0.00;;;;;;;6.11;77.31;100326.56;15669344;28;20555;-50
2023/12/20 10:21:56;;;;;;;0.00;0.00;;;;;;;6.17;77.48;100326.81;15636594;28;20041;-49
2023/12/20 10:29:43;;;;;;;0.38;0.38;;;;;;;6.21;76.30;100312.09;15649766;28;20051;-49
2023/12/20 10:37:18;;;;;;;0.25;0.15;;;;;;;6.43;75.72;100289.69;15640050;28;20049;-52
2023/12/20 10:44:53;;;;;;;0.00;0.00;;;;;;;6.07;77.37;100282.66;15662635;28;20249;-52
2023/12/20 10:52:28;;;;;;;0.00;0.00;;;;;;;6.23;76.88;100275.41;15662566;28;20544;-49
2023/12/20 11:00:06;;;;;;;0.00;0.00;;;;;;;6.23;76.08;100264.72;15662052;28;20052;-47
2023/12/20 11:07:47;;;;;;;0.20;0.20;;;;;;;6.43;74.58;100260.34;15639763;28;20529;-49
2023/12/20 11:15:24;;;;;;;3.42;0.55;;;;;;;6.37;75.10;100239.81;15600363;28;20099;-50
2023/12/20 11:22:59;;;;;;;0.68;0.68;;;;;;;6.32;75.49;100226.25;15657335;28;20053;-53
2023/12/20 11:30:44;;;;;;;0.15;0.15;;;;;;;6.14;76.13;100208.91;15643780;28;20131;-47
2023/12/20 11:38:21;;;;;;;0.00;0.00;;;;;;;6.22;75.71;100196.47;15680451;28;20122;-48
2023/12/20 11:45:56;;;;;;;0.00;0.00;;;;;;;6.34;74.65;100190.41;15675491;28;20037;-52
2023/12/20 11:53:30;;;;;;;0.00;0.00;;;;;;;6.11;76.12;100172.03;15799946;22;20101;-49
2023/12/20 12:01:07;;;;;;;0.00;0.00;;;;;;;6.34;74.95;100154.91;15758168;28;20127;-50
2023/12/20 12:08:42;;;;;;;0.32;0.32;;;;;;;6.30;74.88;100133.19;15718539;28;20048;-51
2023/12/20 12:16:19;;;;;;;1.48;1.25;;;;;;;6.18;75.70;100121.41;15727750;28;20052;-52
2023/12/20 12:23:53;;;;;;;0.00;0.00;;;;;;;6.40;75.26;100106.16;15727380;28;20059;-49
2023/12/20 12:31:28;;;;;;;0.00;0.00;;;;;;;6.38;75.32;100084.19;15747994;28;20451;-50
2023/12/20 12:39:03;;;;;;;0.00;0.00;;;;;;;6.01;78.00;100077.47;15726025;28;20048;-48
2023/12/20 12:46:38;;;;;;;0.22;0.20;;;;;;;5.78;80.10;100061.72;15745911;28;20059;-50
2023/12/20 12:54:16;;;;;;;0.68;0.52;;;;;;;6.18;78.45;100035.34;15725635;28;20197;-51
2023/12/20 13:01:50;;;;;;;0.00;0.00;;;;;;;5.95;80.25;100035.63;15739206;28;20456;-52
2023/12/20 13:09:24;;;;;;;0.00;0.00;;;;;;;5.90;80.92;100030.88;15739811;28;20076;-53
2023/12/20 13:16:59;;;;;;;0.00;0.00;;;;;;;6.03;80.46;100017.66;15720768;28;20532;-50
2023/12/20 13:24:33;;;;;;;0.00;0.00;;;;;;;5.82;81.34;100044.34;15741151;28;20494;-49
2023/12/20 13:32:08;;;;;;;0.28;0.28;;;;;;;5.53;84.23;100094.13;15744459;28;20051;-48
2023/12/20 13:39:42;;;;;;;0.00;0.00;;;;;;;5.28;85.44;100108.88;15737644;28;20041;-48
2023/12/20 13:47:17;;;;;;;0.00;0.00;;;;;;;4.70;82.79;100100.91;15705140;28;20307;-47
2023/12/20 13:54:50;;;;;;;0.00;0.00;;;;;;;4.32;83.50;100087.78;15674749;28;20045;-52
2023/12/20 14:02:26;;;;;;;0.00;0.00;;;;;;;4.21;84.60;100103.41;15668028;28;20040;-51
2023/12/20 14:10:00;;;;;;;0.00;0.00;;;;;;;4.34;84.57;100112.38;15746696;28;20600;-49
2023/12/20 14:17:35;;;;;;;0.00;0.00;;;;;;;4.06;84.79;100136.09;15747752;28;20044;-54
2023/12/20 14:25:10;;;;;;;0.00;0.00;;;;;;;3.99;85.73;100115.75;15730883;28;20075;-53
2023/12/20 14:32:46;;;;;;;0.00;0.00;;;;;;;3.96;86.15;100138.19;15750083;28;20513;-48
2023/12/20 14:40:20;;;;;;;0.00;0.00;;;;;;;4.28;85.12;100157.41;15749034;28;20552;-51
2023/12/20 14:47:56;;;;;;;0.00;0.00;;;;;;;4.36;85.04;100152.03;15718166;28;20121;-51
2023/12/20 14:55:29;;;;;;;0.00;0.00;;;;;;;4.66;83.82;100158.13;15719423;28;20041;-56
2023/12/20 15:03:06;;;;;;;;;;;;;;;4.69;82.62;100163.06;15751009;28;20047;-50
2023/12/20 15:10:40;;;;;;;0.10;0.10;;;;;;;4.47;83.15;100182.63;15749504;28;19924;-54
2023/12/20 15:18:15;;;;;;;0.00;0.00;;;;;;;4.34;82.88;100177.97;15747828;28;20126;-50
2023/12/20 15:25:49;;;;;;;0.00;0.00;;;;;;;4.41;82.58;100199.31;15745642;28;20036;-50
2023/12/20 15:33:23;;;;;;;0.00;0.00;;;;;;;4.49;82.27;100197.38;15710990;28;20045;-50
2023/12/20 15:40:58;;;;;;;0.00;0.00;;;;;;;4.36;83.08;100191.88;15750165;28;20052;-49
2023/12/20 15:48:34;;;;;;;0.00;0.00;;;;;;;4.32;83.01;100198.56;15745532;28;20053;-49
2023/12/20 15:56:08;;;;;;;0.00;0.00;;;;;;;4.22;82.67;100195.34;15735330;28;20578;-56
2023/12/20 16:03:44;;;;;;;0.00;0.00;;;;;;;4.34;82.69;100201.88;15746609;28;20119;-47
2023/12/20 16:11:18;;;;;;;0.00;0.00;;;;;;;4.25;82.35;100202.97;15740927;28;20037;-47
2023/12/20 16:18:53;;;;;;;0.00;0.00;;;;;;;4.44;83.63;100209.56;15734101;28;20048;-51
2023/12/20 16:26:28;;;;;;;2.35;0.52;;;;;;;4.80;83.14;100209.63;15737981;28;20098;-50
2023/12/20 16:34:03;;;;;;;0.00;0.00;;;;;;;4.80;81.60;100201.63;15737795;28;20040;-49
2023/12/20 16:41:36;;;;;;;0.00;0.00;;;;;;;4.55;82.69;100207.25;15734302;28;20512;-47
2023/12/20 16:49:13;;;;;;;2.75;2.40;;;;;;;4.60;81.53;100199.56;15732496;28;20440;-54
2023/12/20 16:56:46;;;;;;;0.00;0.00;;;;;;;4.60;80.91;100215.50;15743648;28;20128;-54
2023/12/20 17:04:23;;;;;;;0.00;0.00;;;;;;;4.64;81.64;100213.31;15716403;28;20079;-55
2023/12/20 17:11:58;;;;;;;0.55;0.43;;;;;;;4.41;82.07;100215.25;15724086;28;20041;-51
2023/12/20 17:19:33;;;;;;;0.00;0.00;;;;;;;4.51;81.43;100208.63;15736087;28;20323;-49
2023/12/20 17:27:08;;;;;;;0.20;0.20;;;;;;;4.47;81.15;100220.63;15720825;28;20072;-53
2023/12/20 17:34:43;;;;;;;0.00;0.00;;;;;;;4.13;82.22;100196.44;15735565;28;20040;-54
2023/12/20 17:42:16;;;;;;;0.22;0.22;;;;;;;4.40;81.64;100219.72;15748695;28;20041;-53
2023/12/20 17:49:52;;;;;;;0.00;0.00;;;;;;;4.28;82.12;100213.22;15777815;22;20075;-51
2023/12/20 17:57:25;;;;;;;0.38;0.30;;;;;;;4.36;81.26;100202.50;15878595;27;20575;-49
2023/12/20 18:05:00;;;;;;;0.00;0.00;;;;;;;4.35;80.93;100211.50;15903431;27;20035;-49
2023/12/20 18:12:34;;;;;;;0.00;0.00;;;;;;;4.33;80.27;100222.28;15871649;28;20051;-51
2023/12/20 18:20:09;;;;;;;0.00;0.00;;;;;;;4.63;79.37;100224.97;15857739;28;20083;-52
2023/12/20 18:27:43;;;;;;;0.00;0.00;;;;;;;4.48;79.83;100210.84;15895388;27;20108;-51
2023/12/20 18:35:19;;;;;;;0.50;0.50;;;;;;;5.05;77.72;100218.94;15902036;27;20403;-51
2023/12/20 18:42:52;;;;;;;0.00;0.00;;;;;;;5.13;76.89;100215.34;15932179;27;20035;-51
2023/12/20 18:50:27;;;;;;;0.25;0.10;;;;;;;5.18;76.62;100209.47;15905208;27;20051;-50
2023/12/20 18:58:01;;;;;;;0.00;0.00;;;;;;;5.08;77.75;100213.25;15931558;27;20078;-51
2023/12/20 19:05:37;;;;;;;0.00;0.00;;;;;;;4.93;78.19;100207.13;15927149;27;20062;-49
2023/12/20 19:13:10;;;;;;;0.00;0.00;;;;;;;4.89;78.33;100195.22;15951462;27;20031;-51
2023/12/20 19:20:45;;;;;;;;;;;;;;;4.71;78.06;100190.31;15996638;27;20470;-49
2023/12/20 19:28:20;;;;;;;0.45;0.45;;;;;;;4.77;77.97;100186.91;15941734;27;20333;-51
2023/12/20 19:35:54;;;;;;;0.00;0.00;;;;;;;4.71;77.89;100202.75;15935871;27;20487;-49
2023/12/20 19:43:28;;;;;;;0.00;0.00;;;;;;;4.85;77.76;100188.63;15994275;27;20043;-51
2023/12/20 19:51:04;;;;;;;0.10;0.10;;;;;;;4.84;76.95;100192.28;15928679;27;20046;-48
2023/12/20 19:58:39;;;;;;;0.00;0.00;;;;;;;4.73;77.82;100182.13;15915773;27;20537;-49
2023/12/20 20:06:14;;;;;;;0.10;0.10;;;;;;;4.71;77.99;100162.88;15950509;27;20050;-52
2023/12/20 20:13:48;;;;;;;0.00;0.00;;;;;;;4.72;78.40;100168.03;15927375;27;20035;-51
2023/12/20 20:21:23;;;;;;;0.00;0.00;;;;;;;4.92;77.78;100156.78;15891489;27;20158;-50
2023/12/20 20:28:56;;;;;;;0.00;0.00;;;;;;;4.40;80.14;100157.81;15926908;27;20059;-50
2023/12/20 20:36:31;;;;;;;0.00;0.00;;;;;;;4.32;80.79;100164.84;15918180;27;20027;-48
2023/12/20 20:44:06;;;;;;;0.00;0.00;;;;;;;4.61;79.70;100144.56;15988270;27;20042;-53
2023/12/20 20:51:41;;;;;;;0.00;0.00;;;;;;;4.32;81.72;100125.00;15907247;27;20222;-53
2023/12/20 20:59:15;;;;;;;0.00;0.00;;;;;;;4.35;81.77;100131.78;15925956;27;20116;-49
2023/12/20 21:06:50;;;;;;;;;;;;;;;4.53;81.48;100108.31;15919419;27;20035;-49
2023/12/20 21:14:24;;;;;;;0.00;0.00;;;;;;;4.34;81.77;100107.06;15922876;27;20272;-50
2023/12/20 21:21:59;;;;;;;0.00;0.00;;;;;;;4.44;82.58;100082.03;15923191;27;20470;-48
2023/12/20 21:29:32;;;;;;;0.00;0.00;;;;;;;4.20;83.55;100076.03;15905145;28;20128;-49
2023/12/20 21:37:06;;;;;;;0.00;0.00;;;;;;;4.12;83.89;100068.16;15938566;27;20114;-50
2023/12/20 21:44:45;;;;;;;1.08;1.02;;;;;;;4.47;83.52;100047.09;15979445;27;20182;-49
2023/12/20 21:52:20;;;;;;;0.00;0.00;;;;;;;4.40;83.39;100035.56;15904414;28;20035;-51
2023/12/20 21:59:54;;;;;;;0.00;0.00;;;;;;;4.19;84.75;100018.56;15904993;28;20533;-50
2023/12/20 22:07:28;;;;;;;0.00;0.00;;;;;;;4.50;84.21;99993.56;15921916;28;20101;-50
2023/12/20 22:15:02;;;;;;;0.00;0.00;;;;;;;4.19;84.52;99976.06;15921132;28;20035;-48
2023/12/20 22:22:38;;;;;;;0.00;0.00;;;;;;;4.32;84.91;99954.97;15902479;28;20156;-49
2023/12/20 22:30:12;;;;;;;5.75;2.72;;;;;;;4.19;84.91;99949.50;15930387;27;20157;-47
2023/12/20 22:37:47;;;;;;;0.00;0.00;;;;;;;3.95;85.08;99894.09;15935456;27;20315;-49
2023/12/20 22:45:21;;;;;;;0.00;0.00;;;;;;;4.19;85.29;99909.66;15984119;27;20124;-49
2023/12/20 22:52:56;;;;;;;0.00;0.00;;;;;;;4.39;84.50;99888.63;15933531;27;20069;-50
2023/12/20 23:00:30;;;;;;;0.00;0.00;;;;;;;4.42;84.57;99874.94;15932090;27;20043;-51
2023/12/20 23:08:07;;;;;;;0.00;0.00;;;;;;;4.34;85.79;99851.19;15931683;27;20042;-48
2023/12/20 23:15:42;;;;;;;0.00;0.00;;;;;;;4.60;84.54;99826.63;15927353;27;20171;-49
2023/12/20 23:23:16;;;;;;;0.00;0.00;;;;;;;4.44;85.95;99787.91;15927377;27;20055;-48
2023/12/20 23:30:51;;;;;;;0.00;0.00;;;;;;;4.44;86.22;99750.72;15911298;27;20035;-48
2023/12/20 23:38:26;;;;;;;;;;;;;;;4.56;86.39;99729.72;15951496;27;20455;-49
2023/12/20 23:46:00;;;;;;;0.98;0.20;;;;;;;4.32;87.89;99686.66;15972080;27;19919;-48
2023/12/20 23:53:35;;;;;;;0.00;0.00;;;;;;;4.60;86.98;99640.59;15929422;27;20070;-49
